Airfield :
LOGIN :

Register | Disclaimer

   EN    FR    IT 

 










Legend :    VFR   Marginal VFR   IFR   Intensive IFR   Very Intensive IFR
Visi :
Ceiling :
>= 8 km
>= 3000ft
5 to 8 km
1000 to 3000 ft
1500m to 5 km
500 to 1000 ft
800 to 1500m
200 to 500 ft
< 800m
< 200 ft
Symbols :   Thunderstorms  Fog  Heavy snow  Heavy precipitations  Wind > 20 kt
SIGMETs :     Misc.  Thunderstorms  Icing  Turbulence  Mountain Waves  Volcanic Ashes






- Airport Elevation : 25 ft
- IATA code : QCY


EGXC - RAF Coningsby

CURRENT METAR :
  • 181450Z 25015KT 9999 FEW040 OVC075 12/02 Q1019 NOSIG RMK BLU BLU

EXPIRED METARs :
  • 181423Z 25015KT 9999 FEW040 OVC090 12/01 Q1019 TEMPO -RA BKN018 RMK BLU TEMPO WHT
  • 181350Z 26014KT 9999 FEW040 OVC090 11/02 Q1020 TEMPO BKN018 RMK BLU TEMPO WHT
  • 181320Z 24011KT 9999 FEW036 OVC130 12/02 Q1020 NOSIG RMK BLU BLU
  • 181250Z 26012KT 9999 FEW032 OVC120 11/02 Q1021 NOSIG RMK BLU BLU
  • 181220Z 25013KT 9999 FEW032 BKN120 11/02 Q1021 NOSIG RMK BLU BLU
  • 181150Z 25014KT 9999 FEW032 BKN130 11/02 Q1021 NOSIG RMK BLU BLU
  • 181120Z AUTO 24012KT 9999 FEW029/// SCT120/// 10/03 Q1022
  • 181050Z 26012KT 9999 FEW025 BKN150 10/03 Q1022 NOSIG RMK BLU BLU
  • 181020Z 27010KT 9999 FEW024 BKN150 09/02 Q1022 NOSIG RMK BLU BLU

TAF TAF EGXC
Valid from the 18 at 15:00 until the 19 at 09:00 UTC


181323Z 1815/1909 25012KT 9999 FEW035
TEMPO 1815/1817 25015G25KT
TEMPO 1816/1903 7000 -RA BKN018
PROB30
TEMPO 1818/1902 4000 RADZ BKN010
PROB30
TEMPO 1907/1909 6000 SHRA SCT020



MET'MAP, your aeronautical weather chart ! - Copyright ORBIFLY December 2007 - Disclaimer

ORBIFLY MET'MAP TEAM :

Programming & Development : Alexandra Zaïnal
Original concept : Baudouin d'Aumeries
Technical & hardware support : Manuel Goepfert
Assistance : Marc-Olivier Méhu




SOURCES & CREDITS :

   NOAA